sensor_id;sensor_type;location;lat;lon;timestamp;pressure;altitude;pressure_sealevel;temperature;humidity
27429;BME280;14881;48.092;11.574;2023-07-31T00:01:54;95605.63;;;15.90;100.00
27429;BME280;14881;48.092;11.574;2023-07-31T00:04:20;95606.09;;;15.84;100.00
27429;BME280;14881;48.092;11.574;2023-07-31T00:06:47;95609.47;;;15.81;100.00
27429;BME280;14881;48.092;11.574;2023-07-31T00:09:14;95609.47;;;15.72;100.00
27429;BME280;14881;48.092;11.574;2023-07-31T00:11:40;95610.38;;;15.59;100.00
27429;BME280;14881;48.092;11.574;2023-07-31T00:14:06;95601.13;;;15.46;100.00
27429;BME280;14881;48.092;11.574;2023-07-31T00:16:33;95609.66;;;15.36;100.00
27429;BME280;14881;48.092;11.574;2023-07-31T00:18:59;95607.50;;;15.24;100.00
27429;BME280;14881;48.092;11.574;2023-07-31T00:21:26;95606.19;;;15.13;100.00
27429;BME280;14881;48.092;11.574;2023-07-31T00:23:53;95614.94;;;14.93;100.00
27429;BME280;14881;48.092;11.574;2023-07-31T00:26:19;95622.94;;;14.81;100.00
27429;BME280;14881;48.092;11.574;2023-07-31T00:28:45;95616.13;;;14.70;100.00
27429;BME280;14881;48.092;11.574;2023-07-31T00:31:12;95617.16;;;14.60;100.00
27429;BME280;14881;48.092;11.574;2023-07-31T00:33:38;95621.09;;;14.45;100.00
27429;BME280;14881;48.092;11.574;2023-07-31T00:36:04;95612.88;;;14.45;100.00
27429;BME280;14881;48.092;11.574;2023-07-31T00:38:31;95619.97;;;14.46;100.00
27429;BME280;14881;48.092;11.574;2023-07-31T00:40:58;95612.59;;;14.47;100.00
27429;BME280;14881;48.092;11.574;2023-07-31T00:43:24;95614.91;;;14.40;100.00
27429;BME280;14881;48.092;11.574;2023-07-31T00:45:51;95620.09;;;14.41;100.00
27429;BME280;14881;48.092;11.574;2023-07-31T00:48:17;95608.03;;;14.42;100.00
27429;BME280;14881;48.092;11.574;2023-07-31T00:50:44;95615.44;;;14.42;100.00
27429;BME280;14881;48.092;11.574;2023-07-31T00:53:10;95612.63;;;14.33;100.00
27429;BME280;14881;48.092;11.574;2023-07-31T00:55:37;95608.69;;;14.25;100.00
27429;BME280;14881;48.092;11.574;2023-07-31T00:58:04;95609.44;;;14.17;100.00
27429;BME280;14881;48.092;11.574;2023-07-31T01:00:30;95610.56;;;14.16;100.00
27429;BME280;14881;48.092;11.574;2023-07-31T01:02:56;95610.38;;;14.13;100.00
27429;BME280;14881;48.092;11.574;2023-07-31T01:05:31;95608.75;;;14.12;100.00
27429;BME280;14881;48.092;11.574;2023-07-31T01:08:05;95612.72;;;14.06;100.00
27429;BME280;14881;48.092;11.574;2023-07-31T01:10:38;95612.59;;;14.11;100.00
27429;BME280;14881;48.092;11.574;2023-07-31T01:13:09;95615.22;;;14.16;100.00
27429;BME280;14881;48.092;11.574;2023-07-31T01:15:36;95612.69;;;14.19;100.00
27429;BME280;14881;48.092;11.574;2023-07-31T01:18:03;95601.25;;;14.17;100.00
27429;BME280;14881;48.092;11.574;2023-07-31T01:20:30;95599.31;;;14.18;100.00
27429;BME280;14881;48.092;11.574;2023-07-31T01:23:23;95604.78;;;14.18;100.00
27429;BME280;14881;48.092;11.574;2023-07-31T01:26:00;95599.94;;;14.15;100.00
27429;BME280;14881;48.092;11.574;2023-07-31T01:28:33;95607.84;;;14.16;100.00
27429;BME280;14881;48.092;11.574;2023-07-31T01:31:04;95595.78;;;14.17;100.00
27429;BME280;14881;48.092;11.574;2023-07-31T01:33:33;95590.69;;;14.24;100.00
27429;BME280;14881;48.092;11.574;2023-07-31T01:36:01;95585.59;;;14.32;100.00
27429;BME280;14881;48.092;11.574;2023-07-31T01:38:27;95590.75;;;14.33;100.00
27429;BME280;14881;48.092;11.574;2023-07-31T01:40:54;95585.28;;;14.33;100.00
27429;BME280;14881;48.092;11.574;2023-07-31T01:43:21;95590.94;;;14.37;100.00
27429;BME280;14881;48.092;11.574;2023-07-31T01:45:47;95583.22;;;14.39;100.00
27429;BME280;14881;48.092;11.574;2023-07-31T01:48:14;95580.69;;;14.42;100.00
27429;BME280;14881;48.092;11.574;2023-07-31T01:50:40;95574.31;;;14.47;100.00
27429;BME280;14881;48.092;11.574;2023-07-31T01:53:06;95577.84;;;14.47;100.00
27429;BME280;14881;48.092;11.574;2023-07-31T01:55:33;95569.03;;;14.50;100.00
27429;BME280;14881;48.092;11.574;2023-07-31T01:58:00;95574.53;;;14.59;100.00
27429;BME280;14881;48.092;11.574;2023-07-31T02:00:26;95567.53;;;14.75;100.00
27429;BME280;14881;48.092;11.574;2023-07-31T02:02:52;95566.16;;;14.86;100.00
27429;BME280;14881;48.092;11.574;2023-07-31T02:05:19;95563.75;;;14.93;100.00
27429;BME280;14881;48.092;11.574;2023-07-31T02:07:45;95564.94;;;15.01;100.00
27429;BME280;14881;48.092;11.574;2023-07-31T02:10:11;95559.47;;;15.10;100.00
27429;BME280;14881;48.092;11.574;2023-07-31T02:12:38;95551.75;;;15.12;100.00
27429;BME280;14881;48.092;11.574;2023-07-31T02:15:06;95543.72;;;15.15;100.00
27429;BME280;14881;48.092;11.574;2023-07-31T02:17:33;95544.41;;;15.21;100.00
27429;BME280;14881;48.092;11.574;2023-07-31T02:19:59;95544.72;;;15.19;100.00
27429;BME280;14881;48.092;11.574;2023-07-31T02:22:26;95538.88;;;15.12;100.00
27429;BME280;14881;48.092;11.574;2023-07-31T02:24:52;95532.91;;;15.10;100.00
27429;BME280;14881;48.092;11.574;2023-07-31T02:27:19;95537.75;;;15.05;100.00
27429;BME280;14881;48.092;11.574;2023-07-31T02:29:45;95534.03;;;15.01;100.00
27429;BME280;14881;48.092;11.574;2023-07-31T02:32:13;95539.28;;;14.88;100.00
27429;BME280;14881;48.092;11.574;2023-07-31T02:34:39;95542.13;;;14.75;100.00
27429;BME280;14881;48.092;11.574;2023-07-31T02:37:06;95538.22;;;14.67;100.00
27429;BME280;14881;48.092;11.574;2023-07-31T02:39:33;95536.88;;;14.56;100.00
27429;BME280;14881;48.092;11.574;2023-07-31T02:41:59;95536.03;;;14.47;100.00
27429;BME280;14881;48.092;11.574;2023-07-31T02:44:26;95534.16;;;14.34;100.00
27429;BME280;14881;48.092;11.574;2023-07-31T02:46:52;95541.38;;;14.29;100.00
27429;BME280;14881;48.092;11.574;2023-07-31T02:49:19;95540.81;;;14.19;100.00
27429;BME280;14881;48.092;11.574;2023-07-31T02:51:46;95529.81;;;14.10;100.00
27429;BME280;14881;48.092;11.574;2023-07-31T02:54:12;95531.06;;;14.04;100.00
27429;BME280;14881;48.092;11.574;2023-07-31T02:56:38;95528.38;;;13.90;100.00
27429;BME280;14881;48.092;11.574;2023-07-31T02:59:05;95527.03;;;13.79;100.00
27429;BME280;14881;48.092;11.574;2023-07-31T03:01:32;95523.72;;;13.69;100.00
27429;BME280;14881;48.092;11.574;2023-07-31T03:03:59;95529.63;;;13.62;100.00
27429;BME280;14881;48.092;11.574;2023-07-31T03:06:26;95534.06;;;13.58;100.00
27429;BME280;14881;48.092;11.574;2023-07-31T03:08:53;95520.41;;;13.58;100.00
27429;BME280;14881;48.092;11.574;2023-07-31T03:11:20;95534.88;;;13.58;100.00
27429;BME280;14881;48.092;11.574;2023-07-31T03:13:46;95529.41;;;13.58;100.00
27429;BME280;14881;48.092;11.574;2023-07-31T03:16:12;95530.16;;;13.50;100.00
27429;BME280;14881;48.092;11.574;2023-07-31T03:18:39;95529.25;;;13.41;100.00
27429;BME280;14881;48.092;11.574;2023-07-31T03:21:05;95534.31;;;13.34;100.00
27429;BME280;14881;48.092;11.574;2023-07-31T03:23:32;95530.66;;;13.39;100.00
27429;BME280;14881;48.092;11.574;2023-07-31T03:26:00;95530.59;;;13.30;100.00
27429;BME280;14881;48.092;11.574;2023-07-31T03:28:26;95531.50;;;13.26;100.00
27429;BME280;14881;48.092;11.574;2023-07-31T03:30:53;95528.59;;;13.22;100.00
27429;BME280;14881;48.092;11.574;2023-07-31T03:33:19;95542.31;;;13.17;100.00
27429;BME280;14881;48.092;11.574;2023-07-31T03:35:46;95539.69;;;13.12;100.00
27429;BME280;14881;48.092;11.574;2023-07-31T03:38:13;95554.03;;;13.17;100.00
27429;BME280;14881;48.092;11.574;2023-07-31T03:40:40;95548.09;;;13.29;100.00
27429;BME280;14881;48.092;11.574;2023-07-31T03:43:06;95543.13;;;13.31;100.00
27429;BME280;14881;48.092;11.574;2023-07-31T03:45:32;95540.09;;;13.33;100.00
27429;BME280;14881;48.092;11.574;2023-07-31T03:47:59;95535.34;;;13.24;100.00
27429;BME280;14881;48.092;11.574;2023-07-31T03:50:25;95539.41;;;13.27;100.00
27429;BME280;14881;48.092;11.574;2023-07-31T03:52:52;95540.81;;;13.24;100.00
27429;BME280;14881;48.092;11.574;2023-07-31T03:55:18;95552.63;;;13.20;100.00
27429;BME280;14881;48.092;11.574;2023-07-31T03:57:45;95554.25;;;13.21;100.00
27429;BME280;14881;48.092;11.574;2023-07-31T04:00:12;95551.22;;;13.22;100.00
27429;BME280;14881;48.092;11.574;2023-07-31T04:02:38;95547.69;;;13.22;100.00
27429;BME280;14881;48.092;11.574;2023-07-31T04:05:05;95541.00;;;13.28;100.00
27429;BME280;14881;48.092;11.574;2023-07-31T04:07:32;95540.41;;;13.31;100.00
27429;BME280;14881;48.092;11.574;2023-07-31T04:09:59;95534.94;;;13.31;100.00
27429;BME280;14881;48.092;11.574;2023-07-31T04:12:25;95534.22;;;13.39;100.00
27429;BME280;14881;48.092;11.574;2023-07-31T04:14:52;95540.38;;;13.45;100.00
27429;BME280;14881;48.092;11.574;2023-07-31T04:17:19;95542.56;;;13.56;100.00
27429;BME280;14881;48.092;11.574;2023-07-31T04:19:45;95529.16;;;13.69;100.00
27429;BME280;14881;48.092;11.574;2023-07-31T04:22:11;95529.16;;;13.82;100.00
27429;BME280;14881;48.092;11.574;2023-07-31T04:24:38;95531.63;;;13.92;100.00
27429;BME280;14881;48.092;11.574;2023-07-31T04:27:05;95537.53;;;14.08;100.00
27429;BME280;14881;48.092;11.574;2023-07-31T04:29:31;95536.16;;;14.19;100.00
27429;BME280;14881;48.092;11.574;2023-07-31T04:31:58;95528.00;;;14.28;100.00
27429;BME280;14881;48.092;11.574;2023-07-31T04:34:24;95529.50;;;14.34;100.00
27429;BME280;14881;48.092;11.574;2023-07-31T04:36:51;95526.78;;;14.34;100.00
27429;BME280;14881;48.092;11.574;2023-07-31T04:39:17;95525.22;;;14.42;100.00
27429;BME280;14881;48.092;11.574;2023-07-31T04:41:43;95523.16;;;14.47;100.00
27429;BME280;14881;48.092;11.574;2023-07-31T04:44:10;95515.66;;;14.53;100.00
27429;BME280;14881;48.092;11.574;2023-07-31T04:46:37;95513.38;;;14.55;100.00
27429;BME280;14881;48.092;11.574;2023-07-31T04:49:04;95507.78;;;14.60;100.00
27429;BME280;14881;48.092;11.574;2023-07-31T04:51:31;95506.53;;;14.66;100.00
27429;BME280;14881;48.092;11.574;2023-07-31T04:53:57;95516.19;;;14.72;100.00
27429;BME280;14881;48.092;11.574;2023-07-31T04:56:23;95511.91;;;14.80;100.00
27429;BME280;14881;48.092;11.574;2023-07-31T04:58:50;95510.16;;;14.84;100.00
27429;BME280;14881;48.092;11.574;2023-07-31T05:01:16;95506.94;;;14.90;100.00
27429;BME280;14881;48.092;11.574;2023-07-31T05:03:43;95506.66;;;15.01;100.00
27429;BME280;14881;48.092;11.574;2023-07-31T05:06:10;95510.38;;;15.13;100.00
27429;BME280;14881;48.092;11.574;2023-07-31T05:08:36;95505.41;;;15.24;100.00
27429;BME280;14881;48.092;11.574;2023-07-31T05:11:02;95506.25;;;15.33;100.00
27429;BME280;14881;48.092;11.574;2023-07-31T05:13:29;95505.63;;;15.45;100.00
27429;BME280;14881;48.092;11.574;2023-07-31T05:15:55;95504.22;;;15.56;100.00
27429;BME280;14881;48.092;11.574;2023-07-31T05:18:22;95505.50;;;15.67;100.00
27429;BME280;14881;48.092;11.574;2023-07-31T05:20:48;95510.03;;;15.80;100.00
27429;BME280;14881;48.092;11.574;2023-07-31T05:23:15;95513.75;;;15.93;100.00
27429;BME280;14881;48.092;11.574;2023-07-31T05:25:42;95514.22;;;16.04;100.00
27429;BME280;14881;48.092;11.574;2023-07-31T05:28:08;95504.19;;;16.16;100.00
27429;BME280;14881;48.092;11.574;2023-07-31T05:30:35;95503.50;;;16.28;100.00
27429;BME280;14881;48.092;11.574;2023-07-31T05:33:01;95494.31;;;16.41;100.00
27429;BME280;14881;48.092;11.574;2023-07-31T05:35:28;95488.13;;;16.53;100.00
27429;BME280;14881;48.092;11.574;2023-07-31T05:37:54;95477.78;;;16.67;100.00
27429;BME280;14881;48.092;11.574;2023-07-31T05:40:21;95479.97;;;16.82;100.00
27429;BME280;14881;48.092;11.574;2023-07-31T05:42:47;95480.22;;;16.98;100.00
27429;BME280;14881;48.092;11.574;2023-07-31T05:45:14;95477.25;;;17.12;100.00
27429;BME280;14881;48.092;11.574;2023-07-31T05:47:40;95460.88;;;17.24;100.00
27429;BME280;14881;48.092;11.574;2023-07-31T05:50:08;95472.25;;;17.34;100.00
27429;BME280;14881;48.092;11.574;2023-07-31T05:52:34;95470.28;;;17.44;100.00
27429;BME280;14881;48.092;11.574;2023-07-31T05:55:00;95472.28;;;17.55;100.00
27429;BME280;14881;48.092;11.574;2023-07-31T05:57:29;95469.19;;;17.65;100.00
27429;BME280;14881;48.092;11.574;2023-07-31T05:59:55;95457.50;;;17.68;100.00
27429;BME280;14881;48.092;11.574;2023-07-31T06:02:22;95468.56;;;17.81;100.00
27429;BME280;14881;48.092;11.574;2023-07-31T06:04:48;95460.22;;;17.89;100.00
27429;BME280;14881;48.092;11.574;2023-07-31T06:07:15;95458.91;;;17.95;100.00
27429;BME280;14881;48.092;11.574;2023-07-31T06:09:41;95455.25;;;18.03;100.00
27429;BME280;14881;48.092;11.574;2023-07-31T06:12:08;95457.59;;;18.14;100.00
27429;BME280;14881;48.092;11.574;2023-07-31T06:14:35;95461.50;;;18.25;100.00
27429;BME280;14881;48.092;11.574;2023-07-31T06:17:02;95456.59;;;18.30;100.00
27429;BME280;14881;48.092;11.574;2023-07-31T06:19:28;95453.19;;;18.46;100.00
27429;BME280;14881;48.092;11.574;2023-07-31T06:21:54;95455.44;;;18.64;100.00
27429;BME280;14881;48.092;11.574;2023-07-31T06:24:21;95458.41;;;18.71;100.00
27429;BME280;14881;48.092;11.574;2023-07-31T06:26:47;95464.84;;;18.75;100.00
27429;BME280;14881;48.092;11.574;2023-07-31T06:29:14;95462.56;;;18.77;100.00
27429;BME280;14881;48.092;11.574;2023-07-31T06:31:41;95458.78;;;18.82;100.00
27429;BME280;14881;48.092;11.574;2023-07-31T06:34:08;95461.66;;;18.86;100.00
27429;BME280;14881;48.092;11.574;2023-07-31T06:36:34;95466.72;;;18.84;100.00
27429;BME280;14881;48.092;11.574;2023-07-31T06:39:00;95458.66;;;18.78;100.00
27429;BME280;14881;48.092;11.574;2023-07-31T06:41:27;95467.38;;;18.81;100.00
27429;BME280;14881;48.092;11.574;2023-07-31T06:43:53;95461.06;;;18.80;100.00
27429;BME280;14881;48.092;11.574;2023-07-31T06:46:19;95469.22;;;18.76;100.00
27429;BME280;14881;48.092;11.574;2023-07-31T06:48:46;95459.34;;;18.75;100.00
27429;BME280;14881;48.092;11.574;2023-07-31T06:51:13;95466.66;;;18.71;100.00
27429;BME280;14881;48.092;11.574;2023-07-31T06:53:39;95456.03;;;18.82;100.00
27429;BME280;14881;48.092;11.574;2023-07-31T06:56:06;95458.56;;;18.87;100.00
27429;BME280;14881;48.092;11.574;2023-07-31T06:58:32;95456.03;;;18.94;100.00
27429;BME280;14881;48.092;11.574;2023-07-31T07:00:59;95444.56;;;19.04;100.00
27429;BME280;14881;48.092;11.574;2023-07-31T07:03:25;95440.63;;;19.05;100.00
27429;BME280;14881;48.092;11.574;2023-07-31T07:05:52;95430.66;;;19.13;100.00
27429;BME280;14881;48.092;11.574;2023-07-31T07:08:18;95431.69;;;19.21;100.00
27429;BME280;14881;48.092;11.574;2023-07-31T07:10:45;95443.84;;;19.32;100.00
27429;BME280;14881;48.092;11.574;2023-07-31T07:13:12;95438.00;;;19.33;100.00
27429;BME280;14881;48.092;11.574;2023-07-31T07:15:39;95438.09;;;19.37;100.00
27429;BME280;14881;48.092;11.574;2023-07-31T07:18:05;95442.56;;;19.41;100.00
27429;BME280;14881;48.092;11.574;2023-07-31T07:20:32;95442.09;;;19.39;100.00
27429;BME280;14881;48.092;11.574;2023-07-31T07:22:59;95440.88;;;19.37;100.00
27429;BME280;14881;48.092;11.574;2023-07-31T07:25:25;95442.69;;;19.33;100.00
27429;BME280;14881;48.092;11.574;2023-07-31T07:27:52;95435.00;;;19.38;100.00
27429;BME280;14881;48.092;11.574;2023-07-31T07:30:18;95440.88;;;19.37;100.00
27429;BME280;14881;48.092;11.574;2023-07-31T07:32:45;95446.94;;;19.55;100.00
27429;BME280;14881;48.092;11.574;2023-07-31T07:35:12;95446.44;;;19.65;100.00
27429;BME280;14881;48.092;11.574;2023-07-31T07:37:38;95437.13;;;19.69;100.00
27429;BME280;14881;48.092;11.574;2023-07-31T07:40:07;95438.44;;;19.88;100.00
27429;BME280;14881;48.092;11.574;2023-07-31T07:42:33;95431.22;;;20.11;100.00
27429;BME280;14881;48.092;11.574;2023-07-31T07:45:00;95423.59;;;20.20;100.00
27429;BME280;14881;48.092;11.574;2023-07-31T07:47:26;95420.84;;;20.36;100.00
27429;BME280;14881;48.092;11.574;2023-07-31T07:49:54;95416.78;;;20.45;100.00
27429;BME280;14881;48.092;11.574;2023-07-31T07:52:21;95422.69;;;20.60;100.00
27429;BME280;14881;48.092;11.574;2023-07-31T07:54:47;95407.66;;;20.57;100.00
27429;BME280;14881;48.092;11.574;2023-07-31T07:57:14;95410.41;;;20.41;100.00
27429;BME280;14881;48.092;11.574;2023-07-31T07:59:41;95409.38;;;20.34;100.00
27429;BME280;14881;48.092;11.574;2023-07-31T08:02:07;95403.28;;;20.28;100.00
27429;BME280;14881;48.092;11.574;2023-07-31T08:04:34;95398.13;;;20.27;100.00
27429;BME280;14881;48.092;11.574;2023-07-31T08:07:00;95387.41;;;20.37;100.00
27429;BME280;14881;48.092;11.574;2023-07-31T08:09:26;95382.34;;;20.55;100.00
27429;BME280;14881;48.092;11.574;2023-07-31T08:11:53;95386.16;;;20.66;100.00
27429;BME280;14881;48.092;11.574;2023-07-31T08:14:21;95386.81;;;20.75;100.00
27429;BME280;14881;48.092;11.574;2023-07-31T08:16:47;95387.50;;;20.72;100.00
27429;BME280;14881;48.092;11.574;2023-07-31T08:19:13;95392.56;;;20.86;100.00
27429;BME280;14881;48.092;11.574;2023-07-31T08:21:40;95399.59;;;20.99;100.00
27429;BME280;14881;48.092;11.574;2023-07-31T08:24:06;95402.53;;;21.06;100.00
27429;BME280;14881;48.092;11.574;2023-07-31T08:26:34;95405.47;;;21.29;100.00
27429;BME280;14881;48.092;11.574;2023-07-31T08:29:00;95387.50;;;21.39;100.00
27429;BME280;14881;48.092;11.574;2023-07-31T08:31:27;95392.19;;;21.54;100.00
27429;BME280;14881;48.092;11.574;2023-07-31T08:33:55;95391.31;;;21.69;100.00
27429;BME280;14881;48.092;11.574;2023-07-31T08:36:22;95391.19;;;21.81;100.00
27429;BME280;14881;48.092;11.574;2023-07-31T08:38:48;95396.41;;;21.67;100.00
27429;BME280;14881;48.092;11.574;2023-07-31T08:41:16;95382.72;;;21.74;100.00
27429;BME280;14881;48.092;11.574;2023-07-31T08:43:43;95384.25;;;21.52;100.00
27429;BME280;14881;48.092;11.574;2023-07-31T08:46:10;95381.88;;;21.35;100.00
27429;BME280;14881;48.092;11.574;2023-07-31T08:48:37;95381.97;;;21.39;100.00
27429;BME280;14881;48.092;11.574;2023-07-31T08:51:04;95378.94;;;21.44;100.00
27429;BME280;14881;48.092;11.574;2023-07-31T08:53:31;95381.66;;;21.25;100.00
27429;BME280;14881;48.092;11.574;2023-07-31T08:55:58;95379.00;;;20.97;100.00
27429;BME280;14881;48.092;11.574;2023-07-31T08:58:25;95388.38;;;20.92;100.00
27429;BME280;14881;48.092;11.574;2023-07-31T09:00:54;95373.41;;;20.93;100.00
27429;BME280;14881;48.092;11.574;2023-07-31T09:03:23;95384.97;;;20.99;100.00
27429;BME280;14881;48.092;11.574;2023-07-31T09:05:53;95387.91;;;21.22;100.00
27429;BME280;14881;48.092;11.574;2023-07-31T09:08:21;95382.56;;;21.48;100.00
27429;BME280;14881;48.092;11.574;2023-07-31T09:10:48;95377.91;;;21.71;100.00
27429;BME280;14881;48.092;11.574;2023-07-31T09:13:16;95381.34;;;21.84;100.00
27429;BME280;14881;48.092;11.574;2023-07-31T09:15:44;95377.84;;;21.68;100.00
27429;BME280;14881;48.092;11.574;2023-07-31T09:18:11;95377.03;;;21.86;100.00
27429;BME280;14881;48.092;11.574;2023-07-31T09:20:37;95376.25;;;22.05;100.00
27429;BME280;14881;48.092;11.574;2023-07-31T09:23:09;95377.50;;;22.08;100.00
27429;BME280;14881;48.092;11.574;2023-07-31T09:25:37;95374.50;;;21.97;100.00
27429;BME280;14881;48.092;11.574;2023-07-31T09:28:05;95366.19;;;22.16;100.00
27429;BME280;14881;48.092;11.574;2023-07-31T09:30:44;95365.97;;;22.06;100.00
27429;BME280;14881;48.092;11.574;2023-07-31T09:33:11;95362.94;;;22.11;100.00
27429;BME280;14881;48.092;11.574;2023-07-31T09:35:38;95369.78;;;22.40;100.00
27429;BME280;14881;48.092;11.574;2023-07-31T09:38:08;95368.25;;;22.00;100.00
27429;BME280;14881;48.092;11.574;2023-07-31T09:40:36;95360.28;;;22.18;100.00
27429;BME280;14881;48.092;11.574;2023-07-31T09:43:04;95355.38;;;22.53;100.00
27429;BME280;14881;48.092;11.574;2023-07-31T09:45:34;95356.13;;;22.50;100.00
27429;BME280;14881;48.092;11.574;2023-07-31T09:48:08;95365.22;;;22.28;100.00
27429;BME280;14881;48.092;11.574;2023-07-31T09:50:37;95360.00;;;22.46;100.00
27429;BME280;14881;48.092;11.574;2023-07-31T09:53:04;95349.66;;;22.66;100.00
27429;BME280;14881;48.092;11.574;2023-07-31T09:55:31;95338.88;;;22.61;100.00
27429;BME280;14881;48.092;11.574;2023-07-31T09:57:58;95340.09;;;22.86;100.00
27429;BME280;14881;48.092;11.574;2023-07-31T10:00:25;95332.78;;;23.27;100.00
27429;BME280;14881;48.092;11.574;2023-07-31T10:02:54;95334.88;;;23.64;100.00
27429;BME280;14881;48.092;11.574;2023-07-31T10:05:24;95322.59;;;23.65;100.00
27429;BME280;14881;48.092;11.574;2023-07-31T10:07:54;95316.34;;;23.41;100.00
27429;BME280;14881;48.092;11.574;2023-07-31T10:10:22;95315.34;;;23.53;100.00
27429;BME280;14881;48.092;11.574;2023-07-31T10:12:49;95320.09;;;23.56;100.00
27429;BME280;14881;48.092;11.574;2023-07-31T10:15:16;95311.84;;;23.59;100.00
27429;BME280;14881;48.092;11.574;2023-07-31T10:17:43;95293.94;;;23.90;100.00
27429;BME280;14881;48.092;11.574;2023-07-31T10:20:11;95285.44;;;24.10;100.00
27429;BME280;14881;48.092;11.574;2023-07-31T10:22:38;95281.22;;;24.23;100.00
27429;BME280;14881;48.092;11.574;2023-07-31T10:25:08;95284.41;;;24.25;100.00
27429;BME280;14881;48.092;11.574;2023-07-31T10:27:35;95286.31;;;24.17;98.05
27429;BME280;14881;48.092;11.574;2023-07-31T10:30:04;95280.31;;;23.75;97.81
27429;BME280;14881;48.092;11.574;2023-07-31T10:32:32;95281.44;;;24.07;100.00
27429;BME280;14881;48.092;11.574;2023-07-31T10:35:01;95277.88;;;24.47;100.00
27429;BME280;14881;48.092;11.574;2023-07-31T10:37:28;95286.16;;;24.40;94.55
27429;BME280;14881;48.092;11.574;2023-07-31T10:40:00;95275.16;;;24.54;93.30
27429;BME280;14881;48.092;11.574;2023-07-31T10:42:31;95259.34;;;25.24;94.81
27429;BME280;14881;48.092;11.574;2023-07-31T10:44:59;95276.56;;;24.85;93.05
27429;BME280;14881;48.092;11.574;2023-07-31T10:47:26;95268.84;;;24.61;92.63
27429;BME280;14881;48.092;11.574;2023-07-31T10:50:10;95284.72;;;24.60;93.26
27429;BME280;14881;48.092;11.574;2023-07-31T10:52:37;95281.75;;;24.36;97.11
27429;BME280;14881;48.092;11.574;2023-07-31T10:55:14;95281.63;;;24.25;98.68
27429;BME280;14881;48.092;11.574;2023-07-31T10:57:44;95285.03;;;24.11;98.06
27429;BME280;14881;48.092;11.574;2023-07-31T11:00:22;95272.53;;;23.91;96.32
27429;BME280;14881;48.092;11.574;2023-07-31T11:03:03;95275.78;;;23.97;99.20
27429;BME280;14881;48.092;11.574;2023-07-31T11:05:50;95258.38;;;24.44;98.67
27429;BME280;14881;48.092;11.574;2023-07-31T11:08:21;95263.00;;;24.73;100.00
27429;BME280;14881;48.092;11.574;2023-07-31T11:10:50;95260.44;;;24.50;96.01
27429;BME280;14881;48.092;11.574;2023-07-31T11:13:16;95254.47;;;24.08;98.89
27429;BME280;14881;48.092;11.574;2023-07-31T11:15:43;95254.41;;;24.01;98.71
27429;BME280;14881;48.092;11.574;2023-07-31T11:18:10;95253.03;;;23.80;97.48
27429;BME280;14881;48.092;11.574;2023-07-31T11:20:38;95262.28;;;23.58;99.29
27429;BME280;14881;48.092;11.574;2023-07-31T11:23:07;95258.03;;;23.68;100.00
27429;BME280;14881;48.092;11.574;2023-07-31T11:25:34;95249.53;;;24.27;100.00
27429;BME280;14881;48.092;11.574;2023-07-31T11:28:05;95244.13;;;25.04;91.80
27429;BME280;14881;48.092;11.574;2023-07-31T11:30:32;95235.97;;;25.46;91.82
27429;BME280;14881;48.092;11.574;2023-07-31T11:33:00;95231.69;;;25.63;90.14
27429;BME280;14881;48.092;11.574;2023-07-31T11:35:30;95222.66;;;26.09;86.16
27429;BME280;14881;48.092;11.574;2023-07-31T11:37:56;95220.69;;;26.27;87.24
27429;BME280;14881;48.092;11.574;2023-07-31T11:40:22;95212.69;;;26.72;82.19
27429;BME280;14881;48.092;11.574;2023-07-31T11:42:58;95219.91;;;26.65;77.58
27429;BME280;14881;48.092;11.574;2023-07-31T11:45:30;95206.34;;;26.25;75.21
27429;BME280;14881;48.092;11.574;2023-07-31T11:47:56;95206.34;;;26.11;84.72
27429;BME280;14881;48.092;11.574;2023-07-31T11:50:24;95206.22;;;25.61;82.70
27429;BME280;14881;48.092;11.574;2023-07-31T11:52:56;95197.72;;;25.15;87.44
27429;BME280;14881;48.092;11.574;2023-07-31T11:55:24;95201.03;;;25.45;86.32
27429;BME280;14881;48.092;11.574;2023-07-31T11:57:51;95195.56;;;25.84;84.99
27429;BME280;14881;48.092;11.574;2023-07-31T12:00:19;95186.44;;;26.19;77.86
27429;BME280;14881;48.092;11.574;2023-07-31T12:02:46;95175.69;;;26.21;74.34
27429;BME280;14881;48.092;11.574;2023-07-31T12:05:13;95176.09;;;26.09;79.05
27429;BME280;14881;48.092;11.574;2023-07-31T12:07:48;95174.53;;;26.40;75.70
27429;BME280;14881;48.092;11.574;2023-07-31T12:10:27;95168.94;;;26.44;82.88
27429;BME280;14881;48.092;11.574;2023-07-31T12:13:02;95164.09;;;26.76;72.44
27429;BME280;14881;48.092;11.574;2023-07-31T12:15:37;95160.84;;;27.02;73.83
27429;BME280;14881;48.092;11.574;2023-07-31T12:18:06;95150.41;;;27.24;74.10
27429;BME280;14881;48.092;11.574;2023-07-31T12:20:33;95148.88;;;27.06;69.66
27429;BME280;14881;48.092;11.574;2023-07-31T12:23:00;95150.16;;;26.76;73.93
27429;BME280;14881;48.092;11.574;2023-07-31T12:25:31;95143.47;;;26.34;72.72
27429;BME280;14881;48.092;11.574;2023-07-31T12:28:04;95141.88;;;26.26;74.25
27429;BME280;14881;48.092;11.574;2023-07-31T12:30:33;95127.94;;;25.80;76.92
27429;BME280;14881;48.092;11.574;2023-07-31T12:33:03;95128.75;;;25.88;80.68
27429;BME280;14881;48.092;11.574;2023-07-31T12:35:35;95121.09;;;25.46;75.55
27429;BME280;14881;48.092;11.574;2023-07-31T12:38:02;95127.06;;;25.48;80.93
27429;BME280;14881;48.092;11.574;2023-07-31T12:40:28;95120.38;;;25.74;79.59
27429;BME280;14881;48.092;11.574;2023-07-31T12:43:01;95116.81;;;26.01;79.67